createdAt,value
2023-05-05T00:01:58.457Z,7.47
2023-05-05T00:06:16.212Z,9.68
2023-05-05T00:10:33.957Z,8.10
2023-05-05T00:14:51.567Z,6.65
2023-05-05T00:19:09.318Z,7.13
2023-05-05T00:23:26.944Z,5.45
2023-05-05T00:27:44.803Z,5.30
2023-05-05T00:32:02.401Z,7.03
2023-05-05T00:36:20.095Z,6.75
2023-05-05T00:40:38.447Z,7.40
2023-05-05T00:44:56.449Z,7.10
2023-05-05T00:49:14.137Z,7.20
2023-05-05T00:53:31.901Z,5.38
2023-05-05T00:57:49.866Z,7.05
2023-05-05T01:02:07.779Z,6.00
2023-05-05T01:07:13.062Z,6.97
2023-05-05T01:11:49.463Z,7.53
2023-05-05T01:16:24.217Z,5.75
2023-05-05T01:20:53.920Z,3.80
2023-05-05T01:25:32.156Z,4.55
2023-05-05T01:34:34.704Z,7.68
2023-05-05T01:38:59.350Z,4.63
2023-05-05T01:43:21.107Z,3.72
2023-05-05T01:47:40.354Z,6.15
2023-05-05T01:51:59.267Z,5.90
2023-05-05T01:56:18.085Z,5.57
2023-05-05T02:00:36.114Z,5.20
2023-05-05T02:04:56.520Z,5.70
2023-05-05T02:09:15.251Z,3.95
2023-05-05T02:13:33.568Z,7.05
2023-05-05T02:22:12.605Z,5.68
2023-05-05T02:26:32.657Z,5.65
2023-05-05T02:30:58.668Z,6.38
2023-05-05T02:35:21.653Z,3.47
2023-05-05T02:39:47.571Z,5.05
2023-05-05T02:44:06.930Z,6.53
2023-05-05T02:48:24.729Z,7.45
2023-05-05T02:52:42.713Z,5.00
2023-05-05T02:57:01.494Z,3.83
2023-05-05T03:01:51.368Z,6.40
2023-05-05T03:06:18.455Z,6.68
2023-05-05T03:10:47.447Z,4.60
2023-05-05T03:15:09.101Z,6.50
2023-05-05T03:19:27.954Z,5.38
2023-05-05T03:23:47.059Z,3.40
2023-05-05T03:28:04.709Z,3.90
2023-05-05T03:32:24.464Z,11.05
2023-05-05T03:36:42.350Z,8.93
2023-05-05T03:41:06.402Z,15.20
2023-05-05T03:45:24.428Z,5.38
2023-05-05T03:49:42.524Z,6.18
2023-05-05T03:54:00.319Z,4.88
2023-05-05T03:58:18.406Z,4.03
2023-05-05T04:02:36.246Z,4.40
2023-05-05T04:06:54.206Z,3.53
2023-05-05T04:11:11.906Z,4.72
2023-05-05T04:15:29.507Z,3.70
2023-05-05T04:19:47.295Z,4.30
2023-05-05T04:24:05.253Z,7.72
2023-05-05T04:28:23.038Z,5.78
2023-05-05T04:32:41.074Z,5.07
2023-05-05T04:36:58.864Z,4.57
2023-05-05T04:41:16.774Z,4.10
2023-05-05T04:45:34.406Z,5.35
2023-05-05T04:49:54.409Z,5.10
2023-05-05T04:54:12.068Z,3.97
2023-05-05T04:58:30.238Z,4.93
2023-05-05T05:07:05.945Z,5.60
2023-05-05T05:11:23.619Z,9.18
2023-05-05T05:15:42.354Z,4.13
2023-05-05T05:24:20.535Z,3.78
2023-05-05T05:28:38.109Z,4.38
2023-05-05T05:32:56.220Z,3.45
2023-05-05T05:37:13.896Z,4.05
2023-05-05T05:41:31.675Z,4.65
2023-05-05T05:45:49.357Z,2.60
2023-05-05T05:50:08.107Z,4.53
2023-05-05T05:54:25.981Z,3.38
2023-05-05T05:58:44.545Z,3.22
2023-05-05T06:03:02.226Z,4.32
2023-05-05T06:07:20.154Z,3.30
2023-05-05T06:11:37.879Z,3.17
2023-05-05T06:15:55.773Z,5.20
2023-05-05T06:20:14.220Z,3.88
2023-05-05T06:24:32.372Z,3.92
2023-05-05T06:28:50.197Z,3.03
2023-05-05T06:33:08.280Z,3.22
2023-05-05T06:37:26.332Z,3.65
2023-05-05T06:41:43.927Z,1.50
2023-05-05T06:46:01.816Z,3.53
2023-05-05T06:50:19.991Z,2.50
2023-05-05T06:54:37.785Z,12.95
2023-05-05T06:58:55.364Z,3.25
2023-05-05T07:03:13.746Z,3.28
2023-05-05T07:07:32.656Z,2.20
2023-05-05T07:11:50.474Z,7.93
2023-05-05T07:16:08.268Z,3.00
2023-05-05T07:20:26.226Z,4.80
2023-05-05T07:24:44.023Z,1.42
2023-05-05T07:29:02.973Z,5.07
2023-05-05T07:33:21.202Z,3.88
2023-05-05T07:37:38.958Z,2.20
2023-05-05T07:41:56.904Z,5.40
2023-05-05T07:46:15.116Z,2.65
2023-05-05T07:50:33.103Z,1.98
2023-05-05T07:54:50.731Z,2.03
2023-05-05T07:59:08.462Z,2.60
2023-05-05T08:03:26.278Z,3.60
2023-05-05T08:07:44.169Z,2.30
2023-05-05T08:12:02.892Z,2.00
2023-05-05T08:16:20.937Z,2.95
2023-05-05T08:20:38.583Z,3.33
2023-05-05T08:24:56.480Z,4.00
2023-05-05T08:29:15.030Z,1.42
2023-05-05T08:33:33.219Z,1.60
2023-05-05T08:37:52.797Z,1.65
2023-05-05T08:42:10.706Z,1.98
2023-05-05T08:46:28.829Z,1.85
2023-05-05T08:55:26.770Z,3.67
2023-05-05T08:59:45.400Z,3.83
2023-05-05T09:04:05.137Z,3.05
2023-05-05T09:08:23.246Z,3.47
2023-05-05T09:12:41.825Z,2.15
2023-05-05T09:16:59.543Z,2.25
2023-05-05T09:21:26.404Z,2.17
2023-05-05T09:26:10.599Z,1.73
2023-05-05T09:30:28.590Z,2.67
2023-05-05T09:35:01.637Z,3.30
2023-05-05T09:39:20.887Z,3.22
2023-05-05T09:43:54.774Z,1.50
2023-05-05T09:48:26.790Z,2.58
2023-05-05T09:53:03.117Z,0.95
2023-05-05T09:57:33.861Z,0.98
2023-05-05T10:01:52.463Z,3.35
2023-05-05T10:06:10.044Z,2.90
2023-05-05T10:10:29.019Z,2.20
2023-05-05T10:14:47.097Z,1.63
2023-05-05T10:19:05.623Z,3.53
2023-05-05T10:23:25.129Z,2.20
2023-05-05T10:27:47.186Z,2.03
2023-05-05T10:36:52.393Z,1.88
2023-05-05T10:41:11.810Z,1.77
2023-05-05T10:45:29.671Z,2.70
2023-05-05T10:49:53.447Z,4.30
2023-05-05T10:54:37.720Z,3.03
2023-05-05T10:59:00.287Z,2.20
2023-05-05T11:03:18.667Z,1.40
2023-05-05T11:07:40.097Z,2.60
2023-05-05T11:12:06.461Z,3.38
2023-05-05T11:16:47.913Z,5.30
2023-05-05T11:21:17.436Z,2.22
2023-05-05T11:25:39.346Z,2.20
2023-05-05T11:30:08.982Z,1.88
2023-05-05T11:34:28.257Z,1.83
2023-05-05T11:38:48.694Z,2.00
2023-05-05T11:43:07.655Z,1.27
2023-05-05T11:47:28.427Z,2.20
2023-05-05T11:52:15.068Z,3.65
2023-05-05T11:56:32.697Z,1.30
2023-05-05T12:00:50.493Z,1.77
2023-05-05T12:05:08.378Z,5.10
2023-05-05T12:09:26.380Z,2.63
2023-05-05T12:13:44.022Z,2.13
2023-05-05T12:18:03.322Z,1.33
2023-05-05T12:22:26.058Z,1.40
2023-05-05T12:26:43.940Z,1.25
2023-05-05T12:31:01.644Z,1.50
2023-05-05T12:35:20.188Z,1.00
2023-05-05T12:39:38.060Z,1.52
2023-05-05T12:43:57.520Z,1.90
2023-05-05T12:48:22.648Z,3.15
2023-05-05T12:52:45.373Z,1.15
2023-05-05T12:57:11.861Z,1.35
2023-05-05T13:01:30.198Z,2.85
2023-05-05T13:05:47.808Z,3.40
2023-05-05T13:10:12.566Z,1.17
2023-05-05T13:14:31.798Z,1.33
2023-05-05T13:18:51.123Z,0.90
2023-05-05T13:23:08.824Z,3.38
2023-05-05T13:27:26.674Z,3.55
2023-05-05T13:31:45.348Z,3.28
2023-05-05T13:36:04.249Z,5.03
2023-05-05T13:40:24.436Z,1.27
2023-05-05T13:44:43.588Z,1.35
2023-05-05T13:49:01.463Z,1.35
2023-05-05T13:53:19.072Z,2.30
2023-05-05T13:57:36.996Z,1.48
2023-05-05T14:01:54.648Z,2.95
2023-05-05T14:06:12.426Z,5.70
2023-05-05T14:10:31.260Z,0.85
2023-05-05T14:14:49.662Z,2.83
2023-05-05T14:19:07.394Z,1.23
2023-05-05T14:23:25.057Z,2.67
2023-05-05T14:27:42.892Z,1.60
2023-05-05T14:32:00.994Z,1.80
2023-05-05T14:36:19.030Z,1.00
2023-05-05T14:40:36.885Z,1.58
2023-05-05T14:53:29.803Z,1.30
2023-05-05T14:57:47.449Z,1.13
2023-05-05T15:02:05.966Z,0.98
2023-05-05T15:06:23.638Z,1.50
2023-05-05T15:10:41.489Z,2.42
2023-05-05T15:14:59.091Z,1.85
2023-05-05T15:19:16.412Z,2.00
2023-05-05T15:23:34.187Z,2.28
2023-05-05T15:32:09.858Z,1.33
2023-05-05T15:36:28.840Z,3.00
2023-05-05T15:40:48.316Z,2.67
2023-05-05T15:45:09.577Z,3.05
2023-05-05T15:49:27.453Z,0.77
2023-05-05T15:53:45.197Z,2.15
2023-05-05T15:58:02.459Z,2.87
2023-05-05T16:02:21.627Z,3.08
2023-05-05T16:06:39.298Z,2.33
2023-05-05T16:10:57.084Z,1.17
2023-05-05T16:15:14.683Z,4.05
2023-05-05T16:19:32.619Z,0.70
2023-05-05T16:23:50.280Z,1.17
2023-05-05T16:28:08.055Z,1.25
2023-05-05T16:32:25.727Z,1.08
2023-05-05T16:36:44.441Z,0.63
2023-05-05T16:41:02.506Z,1.75
2023-05-05T16:45:20.300Z,1.15
2023-05-05T16:49:37.872Z,3.50
2023-05-05T16:53:56.109Z,2.60
2023-05-05T16:58:13.643Z,1.90
2023-05-05T17:02:32.052Z,17.27
2023-05-05T17:06:49.759Z,1.17
2023-05-05T17:11:08.109Z,0.98
2023-05-05T17:15:27.316Z,1.48
2023-05-05T17:19:45.417Z,2.30
2023-05-05T17:28:20.691Z,1.50
2023-05-05T17:32:38.613Z,1.60
2023-05-05T17:45:32.421Z,1.65
2023-05-05T17:54:09.251Z,2.25
2023-05-05T17:58:27.001Z,3.10
2023-05-05T18:02:44.689Z,13.65
2023-05-05T18:07:02.580Z,6.72
2023-05-05T18:11:22.883Z,6.15
2023-05-05T18:15:40.484Z,11.50
2023-05-05T18:19:58.367Z,10.25
2023-05-05T18:24:20.453Z,8.77
2023-05-05T18:28:38.670Z,13.48
2023-05-05T18:32:56.745Z,14.07
2023-05-05T18:41:32.664Z,7.25
2023-05-05T18:45:51.279Z,7.43
2023-05-05T18:50:10.254Z,6.28
2023-05-05T18:54:27.875Z,6.68
2023-05-05T18:58:45.680Z,7.05
2023-05-05T19:03:03.907Z,8.75
2023-05-05T19:07:31.607Z,6.95
2023-05-05T19:11:51.914Z,7.72
2023-05-05T19:16:11.699Z,20.95
2023-05-05T19:20:32.620Z,8.10
2023-05-05T19:24:50.390Z,6.88
2023-05-05T19:29:07.991Z,8.93
2023-05-05T19:33:26.243Z,6.35
2023-05-05T19:37:44.107Z,11.93
2023-05-05T19:42:02.975Z,9.57
2023-05-05T19:46:21.050Z,15.55
2023-05-05T19:50:39.006Z,12.70
2023-05-05T19:54:57.200Z,10.63
2023-05-05T19:59:14.930Z,17.70
2023-05-05T20:03:32.864Z,18.48
2023-05-05T20:07:50.682Z,27.20
2023-05-05T20:12:08.389Z,22.38
2023-05-05T20:16:26.250Z,25.52
2023-05-05T20:20:44.067Z,31.20
2023-05-05T20:25:01.929Z,55.33
2023-05-05T20:29:20.597Z,38.38
2023-05-05T20:33:38.242Z,23.65
2023-05-05T20:37:56.817Z,25.45
2023-05-05T20:42:14.600Z,22.67
2023-05-05T20:46:33.394Z,23.95
2023-05-05T20:50:51.549Z,10.00
2023-05-05T20:59:28.402Z,17.15
2023-05-05T21:03:47.359Z,8.55
2023-05-05T21:08:06.153Z,10.65
2023-05-05T21:12:23.883Z,10.65
2023-05-05T21:16:42.498Z,6.03
2023-05-05T21:21:00.396Z,9.00
2023-05-05T21:25:22.092Z,9.75
2023-05-05T21:29:40.190Z,7.82
2023-05-05T21:33:57.787Z,9.73
2023-05-05T21:38:15.472Z,7.95
2023-05-05T21:42:33.234Z,7.18
2023-05-05T21:46:52.579Z,6.97
2023-05-05T21:51:10.231Z,5.85
2023-05-05T21:55:28.030Z,9.23
2023-05-05T21:59:46.099Z,6.18
2023-05-05T22:04:03.928Z,6.38
2023-05-05T22:08:21.834Z,6.93
2023-05-05T22:12:39.586Z,6.22
2023-05-05T22:16:57.444Z,5.07
2023-05-05T22:21:15.096Z,8.98
2023-05-05T22:25:33.068Z,4.53
2023-05-05T22:29:51.262Z,7.15
2023-05-05T22:38:26.582Z,5.57
2023-05-05T22:42:44.366Z,4.75
2023-05-05T22:47:02.257Z,5.88
2023-05-05T22:51:40.873Z,5.13
2023-05-05T22:55:58.906Z,3.53
2023-05-05T23:00:20.986Z,4.65
2023-05-05T23:04:38.930Z,4.75
2023-05-05T23:08:56.621Z,3.88
2023-05-05T23:13:14.380Z,4.05
2023-05-05T23:17:32.231Z,3.22
2023-05-05T23:21:53.523Z,5.20
2023-05-05T23:26:13.743Z,4.60
2023-05-05T23:30:31.534Z,4.03
2023-05-05T23:34:49.382Z,6.00
2023-05-05T23:39:07.867Z,5.03
2023-05-05T23:43:25.744Z,4.93
2023-05-05T23:47:46.288Z,1.95
2023-05-05T23:52:07.595Z,3.63
2023-05-05T23:56:25.369Z,3.88
